createdAt,value
2018-06-15T00:00:30.011Z,0.00
2018-06-15T00:01:29.998Z,0.00
2018-06-15T00:02:29.984Z,0.00
2018-06-15T00:03:29.977Z,0.00
2018-06-15T00:04:29.973Z,0.00
2018-06-15T00:05:29.966Z,0.00
2018-06-15T00:06:30.720Z,0.00
2018-06-15T00:07:29.959Z,0.00
2018-06-15T00:08:29.952Z,0.00
2018-06-15T00:09:29.947Z,0.00
2018-06-15T00:10:29.940Z,0.00
2018-06-15T00:11:29.945Z,0.00
2018-06-15T00:12:29.927Z,0.00
2018-06-15T00:13:29.917Z,0.00
2018-06-15T00:14:29.914Z,0.00
2018-06-15T00:15:29.921Z,0.00
2018-06-15T00:16:29.905Z,0.00
2018-06-15T00:17:29.898Z,0.00
2018-06-15T00:18:29.891Z,0.00
2018-06-15T00:19:29.884Z,0.00
2018-06-15T00:20:29.884Z,0.00
2018-06-15T00:21:29.873Z,0.00
2018-06-15T00:22:29.874Z,0.00
2018-06-15T00:23:29.880Z,0.00
2018-06-15T00:24:29.859Z,0.00
2018-06-15T00:25:29.854Z,0.00
2018-06-15T00:26:29.851Z,0.00
2018-06-15T00:27:29.836Z,0.00
2018-06-15T00:28:29.835Z,0.00
2018-06-15T00:29:29.826Z,0.00
2018-06-15T00:30:29.824Z,0.00
2018-06-15T00:31:29.817Z,0.00
2018-06-15T00:32:29.809Z,0.00
2018-06-15T00:33:29.802Z,0.00
2018-06-15T00:34:29.797Z,0.00
2018-06-15T00:35:29.792Z,0.00
2018-06-15T00:36:29.786Z,0.00
2018-06-15T00:37:29.781Z,0.00
2018-06-15T00:38:29.783Z,0.00
2018-06-15T00:39:29.776Z,0.00
2018-06-15T00:40:29.775Z,0.00
2018-06-15T00:41:29.757Z,0.00
2018-06-15T00:42:29.757Z,0.00
2018-06-15T00:43:29.744Z,0.00
2018-06-15T00:44:29.743Z,0.00
2018-06-15T00:45:29.731Z,0.00
2018-06-15T00:46:29.732Z,0.00
2018-06-15T00:47:29.727Z,0.00
2018-06-15T00:48:29.715Z,0.00
2018-06-15T00:49:29.708Z,0.00
2018-06-15T00:50:29.705Z,0.00
2018-06-15T00:51:29.704Z,0.00
2018-06-15T00:52:29.701Z,0.00
2018-06-15T00:53:29.693Z,0.00
2018-06-15T00:54:29.684Z,0.00
2018-06-15T00:55:29.703Z,0.00
2018-06-15T00:56:29.696Z,0.00
2018-06-15T00:57:29.667Z,0.00
2018-06-15T00:58:29.663Z,0.00
2018-06-15T00:59:29.660Z,0.00
2018-06-15T01:00:29.650Z,0.00
2018-06-15T01:01:29.651Z,0.00
2018-06-15T01:02:29.642Z,0.00
2018-06-15T01:03:29.642Z,0.00
2018-06-15T01:04:29.631Z,0.00
2018-06-15T01:05:29.621Z,0.00
2018-06-15T01:06:29.614Z,0.00
2018-06-15T01:07:29.610Z,0.00
2018-06-15T01:08:29.602Z,0.00
2018-06-15T01:09:29.594Z,0.00
2018-06-15T01:10:29.591Z,0.00
2018-06-15T01:11:29.586Z,0.00
2018-06-15T01:12:29.581Z,0.00
2018-06-15T01:13:29.616Z,0.00
2018-06-15T01:14:29.577Z,0.00
2018-06-15T01:15:29.572Z,0.00
2018-06-15T01:16:29.566Z,0.00
2018-06-15T01:17:29.550Z,0.00
2018-06-15T01:18:29.550Z,0.00
2018-06-15T01:19:29.542Z,0.00
2018-06-15T01:20:29.534Z,0.00
2018-06-15T01:21:29.529Z,0.00
2018-06-15T01:22:29.518Z,0.00
2018-06-15T01:23:29.514Z,0.00
2018-06-15T01:24:29.517Z,0.00
2018-06-15T01:25:29.503Z,0.00
2018-06-15T01:26:29.500Z,0.00
2018-06-15T01:27:29.497Z,0.00
2018-06-15T01:28:29.488Z,0.00
2018-06-15T01:29:29.483Z,0.00
2018-06-15T01:30:29.472Z,0.00
2018-06-15T01:31:29.467Z,0.00
2018-06-15T01:32:29.482Z,0.00
2018-06-15T01:33:29.462Z,0.00
2018-06-15T01:34:29.454Z,0.00
2018-06-15T01:35:29.451Z,0.00
2018-06-15T01:36:29.447Z,0.00
2018-06-15T01:37:29.431Z,0.00
2018-06-15T01:38:29.428Z,0.00
2018-06-15T01:39:30.258Z,0.00
2018-06-15T01:40:29.419Z,0.00
2018-06-15T01:41:29.408Z,0.00
2018-06-15T01:42:29.406Z,0.00
2018-06-15T01:43:29.403Z,0.00
2018-06-15T01:44:29.394Z,0.00
2018-06-15T01:45:29.384Z,0.00
2018-06-15T01:46:29.380Z,0.00
2018-06-15T01:47:29.377Z,0.00
2018-06-15T01:48:29.370Z,0.00
2018-06-15T01:49:29.363Z,0.00
2018-06-15T01:50:29.357Z,0.00
2018-06-15T01:51:29.347Z,0.00
2018-06-15T01:52:29.345Z,0.00
2018-06-15T01:53:29.338Z,0.00
2018-06-15T01:54:29.339Z,0.00
2018-06-15T01:55:29.329Z,0.00
2018-06-15T01:56:29.317Z,0.00
2018-06-15T01:57:29.311Z,0.00
2018-06-15T01:58:29.305Z,0.00
2018-06-15T01:59:29.308Z,0.00
2018-06-15T02:00:29.297Z,0.00
2018-06-15T02:01:29.395Z,0.00
2018-06-15T02:02:29.283Z,0.00
2018-06-15T02:03:29.280Z,0.00
2018-06-15T02:04:29.267Z,0.00
2018-06-15T02:05:29.265Z,0.00
2018-06-15T02:06:29.258Z,0.00
2018-06-15T02:07:29.255Z,0.00
2018-06-15T02:08:29.249Z,0.00
2018-06-15T02:09:29.244Z,0.00
2018-06-15T02:10:29.260Z,0.00
2018-06-15T02:11:29.228Z,0.00
2018-06-15T02:12:29.225Z,0.00
2018-06-15T02:13:29.270Z,0.00
2018-06-15T02:14:29.230Z,0.00
2018-06-15T02:15:29.202Z,0.00
2018-06-15T02:16:29.201Z,0.00
2018-06-15T02:17:29.189Z,0.00
2018-06-15T02:18:29.185Z,0.00
2018-06-15T02:19:29.176Z,0.00
2018-06-15T02:20:29.170Z,0.00
2018-06-15T02:21:29.174Z,0.00
2018-06-15T02:22:29.160Z,0.00
2018-06-15T02:23:29.153Z,0.00
2018-06-15T02:24:29.145Z,0.00
2018-06-15T02:25:29.144Z,0.00
2018-06-15T02:26:29.135Z,0.00
2018-06-15T02:27:29.135Z,0.00
2018-06-15T02:28:29.124Z,0.00
2018-06-15T02:29:29.120Z,0.00
2018-06-15T02:30:29.110Z,0.00
2018-06-15T02:31:29.104Z,0.00
2018-06-15T02:32:29.098Z,0.00
2018-06-15T02:33:29.088Z,0.00
2018-06-15T02:34:29.083Z,0.00
2018-06-15T02:35:29.077Z,0.00
2018-06-15T02:36:29.072Z,0.00
2018-06-15T02:37:29.075Z,0.00
2018-06-15T02:38:29.056Z,0.00
2018-06-15T02:39:29.054Z,0.00
2018-06-15T02:40:29.042Z,0.00
2018-06-15T02:41:29.040Z,0.00
2018-06-15T02:42:29.039Z,0.00
2018-06-15T02:43:29.028Z,0.00
2018-06-15T02:44:29.028Z,0.00
2018-06-15T02:45:29.038Z,0.00
2018-06-15T02:46:29.007Z,0.00
2018-06-15T02:47:29.000Z,0.00
2018-06-15T02:48:28.993Z,0.00
2018-06-15T02:49:29.009Z,0.00
2018-06-15T02:50:28.983Z,0.00
2018-06-15T02:51:28.976Z,0.00
2018-06-15T02:52:28.970Z,0.00
2018-06-15T02:53:28.974Z,0.00
2018-06-15T02:54:28.953Z,0.00
2018-06-15T02:55:28.954Z,0.00
2018-06-15T02:56:28.943Z,0.00
2018-06-15T02:57:28.948Z,0.00
2018-06-15T02:58:28.931Z,0.00
2018-06-15T02:59:28.925Z,5.63
2018-06-15T03:00:28.915Z,5.63
2018-06-15T03:01:28.915Z,5.63
2018-06-15T03:02:28.916Z,5.63
2018-06-15T03:03:28.894Z,5.63
2018-06-15T03:04:28.894Z,5.63
2018-06-15T03:05:28.889Z,5.63
2018-06-15T03:06:28.886Z,5.63
2018-06-15T03:07:28.904Z,5.63
2018-06-15T03:08:28.863Z,5.63
2018-06-15T03:09:28.859Z,5.63
2018-06-15T03:10:28.851Z,5.63
2018-06-15T03:11:28.847Z,5.63
2018-06-15T03:12:29.791Z,5.63
2018-06-15T03:13:28.832Z,11.25
2018-06-15T03:14:28.832Z,11.25
2018-06-15T03:15:28.822Z,11.25
2018-06-15T03:16:28.812Z,11.25
2018-06-15T03:17:28.807Z,11.25
2018-06-15T03:18:28.799Z,16.88
2018-06-15T03:19:28.794Z,11.25
2018-06-15T03:20:28.789Z,11.25
2018-06-15T03:21:28.780Z,11.25
2018-06-15T03:22:28.772Z,16.88
2018-06-15T03:23:28.766Z,11.25
2018-06-15T03:24:28.764Z,16.88
2018-06-15T03:25:28.755Z,16.88
2018-06-15T03:26:28.748Z,16.88
2018-06-15T03:27:28.744Z,16.88
2018-06-15T03:28:28.740Z,16.88
2018-06-15T03:29:28.734Z,16.88
2018-06-15T03:30:28.730Z,22.50
2018-06-15T03:31:28.742Z,22.50
2018-06-15T03:32:28.718Z,22.50
2018-06-15T03:33:28.703Z,22.50
2018-06-15T03:34:28.700Z,28.13
2018-06-15T03:35:28.695Z,28.13
2018-06-15T03:36:28.690Z,28.13
2018-06-15T03:37:28.680Z,33.75
2018-06-15T03:38:28.677Z,33.75
2018-06-15T03:39:28.668Z,39.38
2018-06-15T03:40:28.663Z,45.00
2018-06-15T03:41:28.658Z,45.00
2018-06-15T03:42:28.648Z,45.00
2018-06-15T03:43:28.644Z,39.38
2018-06-15T03:44:28.642Z,45.00
2018-06-15T03:45:28.631Z,45.00
2018-06-15T03:46:28.629Z,50.63
2018-06-15T03:47:28.624Z,56.25
2018-06-15T03:48:28.616Z,67.50
2018-06-15T03:49:28.610Z,67.50
2018-06-15T03:50:28.601Z,67.50
2018-06-15T03:51:28.596Z,67.50
2018-06-15T03:52:28.593Z,78.75
2018-06-15T03:53:28.589Z,78.75
2018-06-15T03:54:28.584Z,84.38
2018-06-15T03:55:28.575Z,90.00
2018-06-15T03:56:28.567Z,90.00
2018-06-15T03:57:28.559Z,90.00
2018-06-15T03:58:28.553Z,90.00
2018-06-15T03:59:28.565Z,95.63
2018-06-15T04:00:28.542Z,95.63
2018-06-15T04:01:28.538Z,95.63
2018-06-15T04:02:28.533Z,95.63
2018-06-15T04:03:28.526Z,90.00
2018-06-15T04:04:28.523Z,90.00
2018-06-15T04:05:28.517Z,84.38
2018-06-15T04:06:28.510Z,78.75
2018-06-15T04:07:28.502Z,78.75
2018-06-15T04:08:28.503Z,84.38
2018-06-15T04:09:28.489Z,84.38
2018-06-15T04:10:28.482Z,84.38
2018-06-15T04:11:28.481Z,84.38
2018-06-15T04:12:28.481Z,84.38
2018-06-15T04:13:28.475Z,78.75
2018-06-15T04:14:28.467Z,78.75
2018-06-15T04:15:28.466Z,73.13
2018-06-15T04:16:28.448Z,73.13
2018-06-15T04:17:28.444Z,73.13
2018-06-15T04:18:28.439Z,67.50
2018-06-15T04:19:28.433Z,73.13
2018-06-15T04:20:28.428Z,73.13
2018-06-15T04:21:28.420Z,73.13
2018-06-15T04:22:28.415Z,78.75
2018-06-15T04:23:28.407Z,84.38
2018-06-15T04:24:28.400Z,90.00
2018-06-15T04:25:28.396Z,90.00
2018-06-15T04:26:28.393Z,95.63
2018-06-15T04:27:28.386Z,95.63
2018-06-15T04:28:28.379Z,101.25
2018-06-15T04:29:28.372Z,112.50
2018-06-15T04:30:28.370Z,129.38
2018-06-15T04:31:28.360Z,140.63
2018-06-15T04:32:28.352Z,157.50
2018-06-15T04:33:28.350Z,168.75
2018-06-15T04:34:28.348Z,174.38
2018-06-15T04:35:28.340Z,185.63
2018-06-15T04:36:28.333Z,185.63
2018-06-15T04:37:28.327Z,191.25
2018-06-15T04:38:28.322Z,191.25
2018-06-15T04:39:28.315Z,196.88
2018-06-15T04:40:28.312Z,196.88
2018-06-15T04:41:28.307Z,202.50
2018-06-15T04:42:28.301Z,208.13
2018-06-15T04:43:28.295Z,208.13
2018-06-15T04:44:28.285Z,208.13
2018-06-15T04:45:28.283Z,213.75
2018-06-15T04:46:28.279Z,213.75
2018-06-15T04:47:28.269Z,213.75
2018-06-15T04:48:28.264Z,213.75
2018-06-15T04:49:28.260Z,219.38
2018-06-15T04:50:28.256Z,225.00
2018-06-15T04:51:28.249Z,230.63
2018-06-15T04:52:28.241Z,236.25
2018-06-15T04:53:28.240Z,241.88
2018-06-15T04:54:28.233Z,247.50
2018-06-15T04:55:28.225Z,253.13
2018-06-15T04:56:28.218Z,258.75
2018-06-15T04:57:28.215Z,264.38
2018-06-15T04:58:28.208Z,264.38
2018-06-15T04:59:28.200Z,258.75
2018-06-15T05:00:28.199Z,264.38
2018-06-15T05:01:28.208Z,275.63
2018-06-15T05:02:28.188Z,281.25
2018-06-15T05:03:28.186Z,286.88
2018-06-15T05:04:28.174Z,292.50
2018-06-15T05:05:28.170Z,309.38
2018-06-15T05:06:28.162Z,320.63
2018-06-15T05:07:28.185Z,337.50
2018-06-15T05:08:28.176Z,331.88
2018-06-15T05:09:28.154Z,331.88
2018-06-15T05:10:28.144Z,326.25
2018-06-15T05:11:28.153Z,320.63
2018-06-15T05:12:28.132Z,309.38
2018-06-15T05:13:28.129Z,292.50
2018-06-15T05:14:28.120Z,286.88
2018-06-15T05:15:28.115Z,292.50
2018-06-15T05:16:28.113Z,292.50
2018-06-15T05:17:28.117Z,298.13
2018-06-15T05:18:28.100Z,320.63
2018-06-15T05:19:28.094Z,337.50
2018-06-15T05:20:28.090Z,343.13
2018-06-15T05:21:28.091Z,348.75
2018-06-15T05:22:28.083Z,348.75
2018-06-15T05:23:28.078Z,354.38
2018-06-15T05:24:28.072Z,365.63
2018-06-15T05:25:28.068Z,376.88
2018-06-15T05:26:28.068Z,388.13
2018-06-15T05:27:28.059Z,393.75
2018-06-15T05:28:28.069Z,393.75
2018-06-15T05:29:28.058Z,393.75
2018-06-15T05:30:28.039Z,393.75
2018-06-15T05:31:28.037Z,410.63
2018-06-15T05:32:28.847Z,399.38
2018-06-15T05:33:28.029Z,376.88
2018-06-15T05:34:28.018Z,376.88
2018-06-15T05:35:28.015Z,382.50
2018-06-15T05:36:28.015Z,393.75
2018-06-15T05:37:28.006Z,410.63
2018-06-15T05:38:27.999Z,427.50
2018-06-15T05:39:28.036Z,444.38
2018-06-15T05:40:27.988Z,472.50
2018-06-15T05:41:27.983Z,483.75
2018-06-15T05:42:28.004Z,500.63
2018-06-15T05:43:27.975Z,511.88
2018-06-15T05:44:27.972Z,506.25
2018-06-15T05:45:27.964Z,489.38
2018-06-15T05:46:27.960Z,483.75
2018-06-15T05:47:27.959Z,466.88
2018-06-15T05:48:27.992Z,455.63
2018-06-15T05:49:27.944Z,438.75
2018-06-15T05:50:27.941Z,393.75
2018-06-15T05:51:27.938Z,360.00
2018-06-15T05:52:27.932Z,343.13
2018-06-15T05:53:27.927Z,337.50
2018-06-15T05:54:27.920Z,343.13
2018-06-15T05:55:27.937Z,354.38
2018-06-15T05:56:27.911Z,393.75
2018-06-15T05:57:27.910Z,427.50
2018-06-15T05:58:27.902Z,472.50
2018-06-15T05:59:27.901Z,511.88
2018-06-15T06:00:27.937Z,540.00
2018-06-15T06:01:27.891Z,562.50
2018-06-15T06:02:27.886Z,596.25
2018-06-15T06:03:27.880Z,624.38
2018-06-15T06:04:27.885Z,641.25
2018-06-15T06:05:27.874Z,658.13
2018-06-15T06:06:27.863Z,675.00
2018-06-15T06:07:27.858Z,680.63
2018-06-15T06:08:27.862Z,680.63
2018-06-15T06:09:27.856Z,691.88
2018-06-15T06:10:27.849Z,708.75
2018-06-15T06:11:27.888Z,742.50
2018-06-15T06:12:27.866Z,742.50
2018-06-15T06:13:27.830Z,736.88
2018-06-15T06:14:27.829Z,742.50
2018-06-15T06:15:27.824Z,748.13
2018-06-15T06:16:27.820Z,753.75
2018-06-15T06:17:27.824Z,748.13
2018-06-15T06:18:27.924Z,742.50
2018-06-15T06:19:27.888Z,725.63
2018-06-15T06:20:27.806Z,714.38
2018-06-15T06:21:27.810Z,697.50
2018-06-15T06:22:27.916Z,675.00
2018-06-15T06:23:27.815Z,646.88
2018-06-15T06:24:27.857Z,630.00
2018-06-15T06:25:27.779Z,630.00
2018-06-15T06:26:27.822Z,635.63
2018-06-15T06:27:27.775Z,641.25
2018-06-15T06:28:27.774Z,652.50
2018-06-15T06:29:27.796Z,686.25
2018-06-15T06:30:27.775Z,781.88
2018-06-15T06:31:27.751Z,1080.00
2018-06-15T06:32:27.793Z,1130.63
2018-06-15T06:33:27.745Z,1389.38
2018-06-15T06:34:27.746Z,1372.50
2018-06-15T06:35:27.740Z,1361.25
2018-06-15T06:36:27.737Z,1681.88
2018-06-15T06:37:27.729Z,1715.63
2018-06-15T06:38:27.740Z,2227.50
2018-06-15T06:39:27.720Z,1490.63
2018-06-15T06:40:27.718Z,1485.00
2018-06-15T06:41:27.714Z,1507.50
2018-06-15T06:42:27.709Z,1726.88
2018-06-15T06:43:27.707Z,2306.25
2018-06-15T06:44:27.708Z,1518.75
2018-06-15T06:45:27.702Z,1383.75
2018-06-15T06:46:27.755Z,1321.88
2018-06-15T06:47:27.700Z,1383.75
2018-06-15T06:48:27.693Z,1524.38
2018-06-15T06:49:27.685Z,2199.38
2018-06-15T06:50:27.718Z,2941.88
2018-06-15T06:51:27.686Z,2615.63
2018-06-15T06:52:27.683Z,2013.75
2018-06-15T06:53:27.681Z,1951.88
2018-06-15T06:54:27.679Z,1738.13
2018-06-15T06:55:27.678Z,2508.75
2018-06-15T06:56:27.675Z,3234.38
2018-06-15T06:57:27.665Z,3498.75
2018-06-15T06:58:27.726Z,2767.50
2018-06-15T06:59:27.667Z,2655.00
2018-06-15T07:00:27.662Z,3127.50
2018-06-15T07:01:27.659Z,3206.25
2018-06-15T07:02:27.657Z,3195.00
2018-06-15T07:03:27.654Z,2688.75
2018-06-15T07:04:27.651Z,1608.75
2018-06-15T07:05:27.655Z,1575.00
2018-06-15T07:06:27.649Z,1625.63
2018-06-15T07:07:27.650Z,1687.50
2018-06-15T07:08:27.657Z,1726.88
2018-06-15T07:09:27.647Z,1923.75
2018-06-15T07:10:27.646Z,1996.88
2018-06-15T07:11:27.646Z,2930.63
2018-06-15T07:12:27.644Z,1732.50
2018-06-15T07:13:27.643Z,1158.75
2018-06-15T07:14:27.641Z,1051.88
2018-06-15T07:15:27.639Z,1023.75
2018-06-15T07:16:27.646Z,978.75
2018-06-15T07:17:27.637Z,995.63
2018-06-15T07:18:27.635Z,1051.88
2018-06-15T07:19:27.638Z,1085.63
2018-06-15T07:20:27.634Z,1068.75
2018-06-15T07:21:27.633Z,1040.63
2018-06-15T07:22:27.630Z,1035.00
2018-06-15T07:23:27.624Z,984.38
2018-06-15T07:24:27.620Z,843.75
2018-06-15T07:25:27.623Z,703.13
2018-06-15T07:26:27.621Z,641.25
2018-06-15T07:27:27.624Z,781.88
2018-06-15T07:28:27.622Z,601.88
2018-06-15T07:29:27.624Z,641.25
2018-06-15T07:30:27.616Z,742.50
2018-06-15T07:31:27.617Z,877.50
2018-06-15T07:32:27.616Z,1051.88
2018-06-15T07:33:27.620Z,1805.63
2018-06-15T07:34:27.616Z,1440.00
2018-06-15T07:35:27.602Z,1181.25
2018-06-15T07:36:27.600Z,1181.25
2018-06-15T07:37:27.599Z,1305.00
2018-06-15T07:38:27.597Z,1546.88
2018-06-15T07:39:27.592Z,2941.88
2018-06-15T07:40:27.590Z,1738.13
2018-06-15T07:41:27.591Z,3121.88
2018-06-15T07:42:27.593Z,3223.13
2018-06-15T07:43:27.598Z,4140.00
2018-06-15T07:44:27.583Z,3808.13
2018-06-15T07:45:27.583Z,4027.50
2018-06-15T07:46:27.576Z,1541.25
2018-06-15T07:47:27.577Z,1282.50
2018-06-15T07:48:27.579Z,1372.50
2018-06-15T07:49:27.570Z,1665.00
2018-06-15T07:50:27.575Z,855.00
2018-06-15T07:51:27.568Z,804.38
2018-06-15T07:52:27.624Z,849.38
2018-06-15T07:53:27.571Z,939.38
2018-06-15T07:54:27.565Z,995.63
2018-06-15T07:55:27.567Z,1006.88
2018-06-15T07:56:27.566Z,1001.25
2018-06-15T07:57:27.566Z,973.13
2018-06-15T07:58:27.561Z,945.00
2018-06-15T07:59:27.629Z,911.25
2018-06-15T08:00:27.556Z,877.50
2018-06-15T08:01:27.551Z,877.50
2018-06-15T08:02:27.552Z,860.63
2018-06-15T08:03:27.554Z,877.50
2018-06-15T08:04:27.551Z,900.00
2018-06-15T08:05:27.549Z,905.63
2018-06-15T08:06:27.546Z,911.25
2018-06-15T08:07:27.544Z,967.50
2018-06-15T08:08:27.542Z,1046.25
2018-06-15T08:09:27.541Z,1074.38
2018-06-15T08:10:27.540Z,1108.13
2018-06-15T08:11:27.533Z,1102.50
2018-06-15T08:12:27.534Z,1091.25
2018-06-15T08:13:27.526Z,1068.75
2018-06-15T08:14:27.526Z,1051.88
2018-06-15T08:15:27.525Z,1080.00
2018-06-15T08:16:27.532Z,1074.38
2018-06-15T08:17:28.436Z,1063.13
2018-06-15T08:18:27.522Z,1080.00
2018-06-15T08:19:27.514Z,3240.00
2018-06-15T08:20:27.512Z,1833.75
2018-06-15T08:21:27.509Z,1411.88
2018-06-15T08:22:27.505Z,1383.75
2018-06-15T08:23:27.513Z,1513.13
2018-06-15T08:24:27.512Z,1918.13
2018-06-15T08:25:27.504Z,5225.63
2018-06-15T08:26:27.497Z,3763.13
2018-06-15T08:27:27.501Z,1918.13
2018-06-15T08:28:27.495Z,1726.88
2018-06-15T08:29:27.496Z,1726.88
2018-06-15T08:30:27.496Z,1991.25
2018-06-15T08:31:27.493Z,5411.25
2018-06-15T08:32:27.489Z,6221.25
2018-06-15T08:33:27.485Z,6103.13
2018-06-15T08:34:27.490Z,5872.50
2018-06-15T08:35:27.483Z,5799.38
2018-06-15T08:36:27.502Z,4809.38
2018-06-15T08:37:27.487Z,5304.38
2018-06-15T08:38:27.485Z,5253.75
2018-06-15T08:39:27.483Z,3346.88
2018-06-15T08:40:27.485Z,2244.38
2018-06-15T08:41:27.480Z,2362.50
2018-06-15T08:42:27.481Z,2649.38
2018-06-15T08:43:27.485Z,3774.38
2018-06-15T08:44:27.490Z,2401.88
2018-06-15T08:45:27.493Z,2385.00
2018-06-15T08:46:27.487Z,4213.13
2018-06-15T08:47:27.486Z,6046.88
2018-06-15T08:48:27.488Z,6035.63
2018-06-15T08:49:27.490Z,2418.75
2018-06-15T08:50:27.495Z,2092.50
2018-06-15T08:51:27.496Z,2638.13
2018-06-15T08:52:27.494Z,5968.13
2018-06-15T08:53:27.494Z,3600.00
2018-06-15T08:54:27.496Z,1659.38
2018-06-15T08:55:27.497Z,1597.50
2018-06-15T08:56:27.497Z,1614.38
2018-06-15T08:57:27.497Z,4494.38
2018-06-15T08:58:27.504Z,3234.38
2018-06-15T08:59:27.504Z,1513.13
2018-06-15T09:00:27.505Z,1321.88
2018-06-15T09:01:27.521Z,1333.13
2018-06-15T09:02:27.505Z,1468.13
2018-06-15T09:03:27.504Z,1546.88
2018-06-15T09:04:27.509Z,1575.00
2018-06-15T09:05:27.513Z,1625.63
2018-06-15T09:06:27.511Z,1608.75
2018-06-15T09:07:27.513Z,1518.75
2018-06-15T09:08:27.508Z,1445.63
2018-06-15T09:09:27.513Z,1496.25
2018-06-15T09:10:27.512Z,1462.50
2018-06-15T09:11:27.517Z,1591.88
2018-06-15T09:12:27.517Z,1873.13
2018-06-15T09:13:27.516Z,3110.63
2018-06-15T09:14:27.517Z,5889.38
2018-06-15T09:15:27.516Z,3296.25
2018-06-15T09:16:27.514Z,2497.50
2018-06-15T09:17:27.514Z,3228.75
2018-06-15T09:18:27.516Z,5535.00
2018-06-15T09:19:27.518Z,4325.63
2018-06-15T09:20:27.524Z,3150.00
2018-06-15T09:21:27.519Z,3195.00
2018-06-15T09:22:27.516Z,3791.25
2018-06-15T09:23:27.522Z,5647.50
2018-06-15T09:24:27.521Z,6210.00
2018-06-15T09:25:27.521Z,2626.88
2018-06-15T09:26:27.528Z,2593.13
2018-06-15T09:27:27.525Z,2581.88
2018-06-15T09:28:27.530Z,2396.25
2018-06-15T09:29:27.526Z,2154.38
2018-06-15T09:30:27.524Z,2002.50
2018-06-15T09:31:27.530Z,1923.75
2018-06-15T09:32:27.525Z,1878.75
2018-06-15T09:33:27.532Z,1884.38
2018-06-15T09:34:27.542Z,2013.75
2018-06-15T09:35:27.535Z,1884.38
2018-06-15T09:36:27.534Z,1895.63
2018-06-15T09:37:27.531Z,1963.13
2018-06-15T09:38:27.540Z,2193.75
2018-06-15T09:39:27.540Z,2238.75
2018-06-15T09:40:27.541Z,2261.25
2018-06-15T09:41:27.540Z,2778.75
2018-06-15T09:42:27.543Z,5709.38
2018-06-15T09:43:27.542Z,2806.88
2018-06-15T09:44:27.544Z,2953.13
2018-06-15T09:45:27.543Z,2491.88
2018-06-15T09:46:27.552Z,2531.25
2018-06-15T09:47:27.552Z,5850.00
2018-06-15T09:48:27.550Z,2874.38
2018-06-15T09:49:27.551Z,3448.13
2018-06-15T09:50:27.551Z,1749.38
2018-06-15T09:51:27.553Z,1603.13
2018-06-15T09:52:27.554Z,1591.88
2018-06-15T09:53:27.558Z,1558.13
2018-06-15T09:54:27.561Z,1552.50
2018-06-15T09:55:27.562Z,1496.25
2018-06-15T09:56:27.562Z,1440.00
2018-06-15T09:57:27.567Z,1485.00
2018-06-15T09:58:27.570Z,1524.38
2018-06-15T09:59:27.573Z,1456.88
2018-06-15T10:00:27.573Z,1417.50
2018-06-15T10:01:27.575Z,1350.00
2018-06-15T10:02:27.574Z,1299.38
2018-06-15T10:03:27.574Z,1276.88
2018-06-15T10:04:27.582Z,1237.50
2018-06-15T10:05:27.573Z,1203.75
2018-06-15T10:06:27.572Z,1192.50
2018-06-15T10:07:27.585Z,1198.13
2018-06-15T10:08:27.581Z,1243.13
2018-06-15T10:09:27.583Z,1243.13
2018-06-15T10:10:27.583Z,1248.75
2018-06-15T10:11:27.582Z,1293.75
2018-06-15T10:12:27.584Z,1316.25
2018-06-15T10:13:27.585Z,1305.00
2018-06-15T10:14:27.590Z,1299.38
2018-06-15T10:15:27.587Z,1271.25
2018-06-15T10:16:27.590Z,1209.38
2018-06-15T10:17:27.583Z,1181.25
2018-06-15T10:18:27.588Z,1164.38
2018-06-15T10:19:27.587Z,1170.00
2018-06-15T10:20:27.602Z,1181.25
2018-06-15T10:21:27.587Z,1220.63
2018-06-15T10:22:27.593Z,1428.75
2018-06-15T10:23:27.599Z,2165.63
2018-06-15T10:24:27.586Z,6001.88
2018-06-15T10:25:27.585Z,6131.25
2018-06-15T10:26:27.589Z,5911.88
2018-06-15T10:27:27.588Z,5855.63
2018-06-15T10:28:27.587Z,5861.25
2018-06-15T10:29:27.590Z,5906.25
2018-06-15T10:30:27.592Z,6075.00
2018-06-15T10:31:27.588Z,6879.38
2018-06-15T10:32:27.592Z,6834.38
2018-06-15T10:33:27.593Z,6474.38
2018-06-15T10:34:27.602Z,6260.63
2018-06-15T10:35:27.605Z,5613.75
2018-06-15T10:36:27.610Z,4083.75
2018-06-15T10:37:27.605Z,2930.63
2018-06-15T10:38:27.615Z,4134.38
2018-06-15T10:39:27.651Z,5085.00
2018-06-15T10:40:27.623Z,2925.00
2018-06-15T10:41:27.631Z,6401.25
2018-06-15T10:42:27.633Z,2761.88
2018-06-15T10:43:27.636Z,5062.50
2018-06-15T10:44:27.641Z,6631.88
2018-06-15T10:45:27.643Z,6446.25
2018-06-15T10:46:27.647Z,5776.88
2018-06-15T10:47:27.658Z,6322.50
2018-06-15T10:48:27.662Z,5467.50
2018-06-15T10:49:27.667Z,2930.63
2018-06-15T10:50:27.672Z,6238.13
2018-06-15T10:51:27.678Z,3560.63
2018-06-15T10:52:27.685Z,2373.75
2018-06-15T10:53:27.685Z,2340.00
2018-06-15T10:54:27.692Z,2317.50
2018-06-15T10:55:27.698Z,5113.13
2018-06-15T10:56:27.706Z,5242.50
2018-06-15T10:57:27.708Z,5068.13
2018-06-15T10:58:27.713Z,5439.38
2018-06-15T10:59:27.716Z,6204.38
2018-06-15T11:00:27.730Z,6001.88
2018-06-15T11:01:27.734Z,5889.38
2018-06-15T11:02:27.752Z,5872.50
2018-06-15T11:03:27.745Z,4871.25
2018-06-15T11:04:27.752Z,4258.13
2018-06-15T11:05:27.753Z,1749.38
2018-06-15T11:06:27.759Z,1524.38
2018-06-15T11:07:27.764Z,1434.38
2018-06-15T11:08:27.772Z,1383.75
2018-06-15T11:09:27.780Z,1411.88
2018-06-15T11:10:27.789Z,1400.63
2018-06-15T11:11:27.789Z,1400.63
2018-06-15T11:12:27.798Z,1389.38
2018-06-15T11:13:27.804Z,1428.75
2018-06-15T11:14:27.850Z,1524.38
2018-06-15T11:15:27.814Z,1620.00
2018-06-15T11:16:27.819Z,1704.38
2018-06-15T11:17:27.826Z,1861.88
2018-06-15T11:18:27.825Z,3313.13
2018-06-15T11:19:27.830Z,3071.25
2018-06-15T11:20:27.840Z,2070.00
2018-06-15T11:21:27.840Z,2396.25
2018-06-15T11:22:27.848Z,1935.00
2018-06-15T11:23:27.854Z,2002.50
2018-06-15T11:24:27.857Z,2300.63
2018-06-15T11:25:27.857Z,3020.63
2018-06-15T11:26:27.860Z,3909.38
2018-06-15T11:27:27.864Z,2655.00
2018-06-15T11:28:27.871Z,5366.25
2018-06-15T11:29:27.877Z,5945.63
2018-06-15T11:30:27.881Z,5883.75
2018-06-15T11:31:27.885Z,5636.25
2018-06-15T11:32:27.891Z,5664.38
2018-06-15T11:33:27.889Z,5608.13
2018-06-15T11:34:27.892Z,5281.88
2018-06-15T11:35:27.922Z,5259.38
2018-06-15T11:36:27.904Z,5163.75
2018-06-15T11:37:27.912Z,5293.13
2018-06-15T11:38:27.916Z,5405.63
2018-06-15T11:39:27.916Z,5315.63
2018-06-15T11:40:27.923Z,5214.38
2018-06-15T11:41:27.930Z,5310.00
2018-06-15T11:42:27.940Z,5158.13
2018-06-15T11:43:27.944Z,5006.25
2018-06-15T11:44:27.951Z,4989.38
2018-06-15T11:45:27.959Z,5130.00
2018-06-15T11:46:27.979Z,5152.50
2018-06-15T11:47:27.967Z,5163.75
2018-06-15T11:48:27.973Z,4826.25
2018-06-15T11:49:27.982Z,4781.25
2018-06-15T11:50:27.989Z,5051.25
2018-06-15T11:51:27.996Z,5096.25
2018-06-15T11:52:28.000Z,5045.63
2018-06-15T11:53:28.004Z,4955.63
2018-06-15T11:54:28.016Z,4882.50
2018-06-15T11:55:28.018Z,4815.00
2018-06-15T11:56:28.030Z,4837.50
2018-06-15T11:57:28.054Z,4893.75
2018-06-15T11:58:28.113Z,4393.13
2018-06-15T11:59:28.050Z,1749.38
2018-06-15T12:00:28.052Z,1524.38
2018-06-15T12:01:28.106Z,1608.75
2018-06-15T12:02:28.068Z,4387.50
2018-06-15T12:03:28.081Z,4005.00
2018-06-15T12:04:28.089Z,1715.63
2018-06-15T12:05:28.095Z,3999.38
2018-06-15T12:06:28.102Z,4331.25
2018-06-15T12:07:28.108Z,4747.50
2018-06-15T12:08:28.112Z,5006.25
2018-06-15T12:09:28.121Z,4758.75
2018-06-15T12:10:28.128Z,4905.00
2018-06-15T12:11:28.135Z,4888.13
2018-06-15T12:12:28.174Z,4944.38
2018-06-15T12:13:28.148Z,4961.25
2018-06-15T12:14:28.152Z,4950.00
2018-06-15T12:15:28.178Z,4691.25
2018-06-15T12:16:28.171Z,4815.00
2018-06-15T12:17:28.174Z,4961.25
2018-06-15T12:18:28.182Z,4944.38
2018-06-15T12:19:28.188Z,4927.50
2018-06-15T12:20:28.200Z,4893.75
2018-06-15T12:21:28.202Z,4972.50
2018-06-15T12:22:28.213Z,4983.75
2018-06-15T12:23:28.224Z,4972.50
2018-06-15T12:24:28.229Z,4961.25
2018-06-15T12:25:28.236Z,4770.00
2018-06-15T12:26:28.241Z,4713.75
2018-06-15T12:27:28.245Z,4798.13
2018-06-15T12:28:28.261Z,4595.63
2018-06-15T12:29:28.259Z,4550.63
2018-06-15T12:30:28.268Z,4511.25
2018-06-15T12:31:28.278Z,3791.25
2018-06-15T12:32:28.281Z,4815.00